sensor_id;sensor_type;location;lat;lon;timestamp;pressure;altitude;pressure_sealevel;temperature;humidity
44825;BME280;30542;47.928;2.138;2022-08-01T00:04:08;100676.72;;;25.44;46.64
44825;BME280;30542;47.928;2.138;2022-08-01T00:09:09;100673.25;;;25.44;46.72
44825;BME280;30542;47.928;2.138;2022-08-01T00:14:09;100670.53;;;25.44;46.62
44825;BME280;30542;47.928;2.138;2022-08-01T00:19:09;100675.41;;;25.42;46.70
44825;BME280;30542;47.928;2.138;2022-08-01T00:24:10;100672.53;;;25.38;46.52
44825;BME280;30542;47.928;2.138;2022-08-01T00:29:10;100680.59;;;25.38;46.73
44825;BME280;30542;47.928;2.138;2022-08-01T00:34:10;100681.91;;;25.41;46.73
44825;BME280;30542;47.928;2.138;2022-08-01T00:39:11;100672.78;;;25.37;46.80
44825;BME280;30542;47.928;2.138;2022-08-01T00:44:11;100675.00;;;25.35;46.56
44825;BME280;30542;47.928;2.138;2022-08-01T00:49:11;100679.84;;;25.33;46.68
44825;BME280;30542;47.928;2.138;2022-08-01T00:54:12;100674.47;;;25.33;46.92
44825;BME280;30542;47.928;2.138;2022-08-01T00:59:13;100668.84;;;25.29;46.90
44825;BME280;30542;47.928;2.138;2022-08-01T01:04:14;100672.34;;;25.29;46.77
44825;BME280;30542;47.928;2.138;2022-08-01T01:09:44;100672.94;;;25.26;46.67
44825;BME280;30542;47.928;2.138;2022-08-01T01:14:56;100675.91;;;25.25;46.79
44825;BME280;30542;47.928;2.138;2022-08-01T01:20:00;100666.22;;;25.24;46.55
44825;BME280;30542;47.928;2.138;2022-08-01T01:25:09;100670.81;;;25.23;46.44
44825;BME280;30542;47.928;2.138;2022-08-01T01:30:18;100669.50;;;25.21;46.23
44825;BME280;30542;47.928;2.138;2022-08-01T01:35:24;100661.41;;;25.21;46.43
44825;BME280;30542;47.928;2.138;2022-08-01T01:40:27;100664.97;;;25.16;46.32
44825;BME280;30542;47.928;2.138;2022-08-01T01:45:29;100658.50;;;25.17;46.25
44825;BME280;30542;47.928;2.138;2022-08-01T01:50:32;100667.69;;;25.16;46.07
44825;BME280;30542;47.928;2.138;2022-08-01T01:55:32;100657.50;;;25.13;46.15
44825;BME280;30542;47.928;2.138;2022-08-01T02:00:35;100658.88;;;25.11;46.29
44825;BME280;30542;47.928;2.138;2022-08-01T02:05:38;100659.16;;;25.09;46.22
44825;BME280;30542;47.928;2.138;2022-08-01T02:10:40;100666.69;;;25.07;46.17
44825;BME280;30542;47.928;2.138;2022-08-01T02:15:41;100676.97;;;25.05;46.02
44825;BME280;30542;47.928;2.138;2022-08-01T02:20:42;100667.00;;;25.05;46.04
44825;BME280;30542;47.928;2.138;2022-08-01T02:25:49;100668.91;;;25.05;46.01
44825;BME280;30542;47.928;2.138;2022-08-01T02:30:51;100664.66;;;24.99;46.03
44825;BME280;30542;47.928;2.138;2022-08-01T02:35:55;100665.44;;;24.99;46.05
44825;BME280;30542;47.928;2.138;2022-08-01T02:41:00;100667.03;;;25.00;45.76
44825;BME280;30542;47.928;2.138;2022-08-01T02:46:04;100660.34;;;24.98;45.73
44825;BME280;30542;47.928;2.138;2022-08-01T02:51:06;100673.59;;;24.94;45.80
44825;BME280;30542;47.928;2.138;2022-08-01T02:56:08;100679.00;;;24.94;45.63
44825;BME280;30542;47.928;2.138;2022-08-01T03:01:13;100676.34;;;24.89;45.87
44825;BME280;30542;47.928;2.138;2022-08-01T03:06:14;100667.19;;;24.90;45.79
44825;BME280;30542;47.928;2.138;2022-08-01T03:11:17;100665.84;;;24.88;45.92
44825;BME280;30542;47.928;2.138;2022-08-01T03:16:19;100671.53;;;24.86;45.98
44825;BME280;30542;47.928;2.138;2022-08-01T03:21:23;100668.53;;;24.88;45.92
44825;BME280;30542;47.928;2.138;2022-08-01T03:26:26;100669.94;;;24.85;45.91
44825;BME280;30542;47.928;2.138;2022-08-01T03:31:27;100666.72;;;24.83;45.92
44825;BME280;30542;47.928;2.138;2022-08-01T03:36:29;100663.00;;;24.79;45.95
44825;BME280;30542;47.928;2.138;2022-08-01T03:41:34;100664.63;;;24.80;45.75
44825;BME280;30542;47.928;2.138;2022-08-01T03:46:47;100666.28;;;24.76;45.67
44825;BME280;30542;47.928;2.138;2022-08-01T03:51:49;100666.28;;;24.76;45.76
44825;BME280;30542;47.928;2.138;2022-08-01T03:56:51;100672.75;;;24.75;45.76
44825;BME280;30542;47.928;2.138;2022-08-01T04:01:52;100666.56;;;24.74;45.57
44825;BME280;30542;47.928;2.138;2022-08-01T04:06:53;100656.41;;;24.66;45.58
44825;BME280;30542;47.928;2.138;2022-08-01T04:11:54;100670.69;;;24.67;45.51
44825;BME280;30542;47.928;2.138;2022-08-01T04:16:55;100676.06;;;24.67;45.50
44825;BME280;30542;47.928;2.138;2022-08-01T04:21:55;100674.75;;;24.64;45.55
44825;BME280;30542;47.928;2.138;2022-08-01T04:26:58;100668.16;;;24.75;45.39
44825;BME280;30542;47.928;2.138;2022-08-01T04:32:01;100655.28;;;24.72;45.33
44825;BME280;30542;47.928;2.138;2022-08-01T04:37:02;100669.47;;;24.78;45.44
44825;BME280;30542;47.928;2.138;2022-08-01T04:42:04;100671.06;;;24.79;45.28
44825;BME280;30542;47.928;2.138;2022-08-01T04:47:05;100671.69;;;24.76;45.38
44825;BME280;30542;47.928;2.138;2022-08-01T04:52:07;100669.00;;;24.71;45.73
44825;BME280;30542;47.928;2.138;2022-08-01T04:57:08;100673.84;;;24.74;45.16
44825;BME280;30542;47.928;2.138;2022-08-01T05:02:16;100682.22;;;24.72;45.06
44825;BME280;30542;47.928;2.138;2022-08-01T05:07:18;100685.19;;;24.71;45.10
44825;BME280;30542;47.928;2.138;2022-08-01T05:12:18;100683.56;;;24.70;45.19
44825;BME280;30542;47.928;2.138;2022-08-01T05:17:19;100677.69;;;24.68;45.09
44825;BME280;30542;47.928;2.138;2022-08-01T05:22:19;100688.47;;;24.68;45.21
44825;BME280;30542;47.928;2.138;2022-08-01T05:27:20;100694.34;;;24.70;45.20
44825;BME280;30542;47.928;2.138;2022-08-01T05:32:20;100684.16;;;24.67;45.30
44825;BME280;30542;47.928;2.138;2022-08-01T05:37:20;100691.19;;;24.63;45.67
44825;BME280;30542;47.928;2.138;2022-08-01T05:42:21;100688.25;;;24.59;45.99
44825;BME280;30542;47.928;2.138;2022-08-01T05:47:21;100697.69;;;24.62;46.20
44825;BME280;30542;47.928;2.138;2022-08-01T05:52:22;100700.91;;;24.64;46.33
44825;BME280;30542;47.928;2.138;2022-08-01T05:57:22;100696.88;;;24.61;46.68
44825;BME280;30542;47.928;2.138;2022-08-01T06:02:22;100700.66;;;24.60;46.79
44825;BME280;30542;47.928;2.138;2022-08-01T06:07:23;100706.84;;;24.61;46.88
44825;BME280;30542;47.928;2.138;2022-08-01T06:12:24;100705.69;;;24.43;47.90
44825;BME280;30542;47.928;2.138;2022-08-01T06:17:24;100711.66;;;24.00;49.93
44825;BME280;30542;47.928;2.138;2022-08-01T06:22:25;100707.91;;;24.01;50.13
44825;BME280;30542;47.928;2.138;2022-08-01T06:27:25;100706.41;;;23.85;50.93
44825;BME280;30542;47.928;2.138;2022-08-01T06:32:26;100708.56;;;23.83;51.48
44825;BME280;30542;47.928;2.138;2022-08-01T06:37:31;100707.22;;;23.86;51.74
44825;BME280;30542;47.928;2.138;2022-08-01T06:42:31;100714.78;;;23.78;52.07
44825;BME280;30542;47.928;2.138;2022-08-01T06:47:36;100718.03;;;23.75;52.29
44825;BME280;30542;47.928;2.138;2022-08-01T06:52:37;100722.59;;;23.75;52.42
44825;BME280;30542;47.928;2.138;2022-08-01T06:57:46;100704.78;;;23.84;52.47
44825;BME280;30542;47.928;2.138;2022-08-01T07:02:46;100713.28;;;24.01;51.74
44825;BME280;30542;47.928;2.138;2022-08-01T07:07:47;100712.16;;;24.08;51.74
44825;BME280;30542;47.928;2.138;2022-08-01T07:12:47;100714.34;;;24.05;52.14
44825;BME280;30542;47.928;2.138;2022-08-01T07:17:47;100699.22;;;24.10;52.23
44825;BME280;30542;47.928;2.138;2022-08-01T07:22:48;100682.13;;;23.95;52.06
44825;BME280;30542;47.928;2.138;2022-08-01T07:27:48;100707.75;;;24.17;51.80
44825;BME280;30542;47.928;2.138;2022-08-01T07:32:49;100699.63;;;24.22;51.76
44825;BME280;30542;47.928;2.138;2022-08-01T07:37:49;100707.44;;;24.23;52.11
44825;BME280;30542;47.928;2.138;2022-08-01T07:42:49;100700.72;;;24.21;52.04
44825;BME280;30542;47.928;2.138;2022-08-01T07:47:50;100703.59;;;24.29;51.71
44825;BME280;30542;47.928;2.138;2022-08-01T07:52:50;100700.66;;;24.31;51.77
44825;BME280;30542;47.928;2.138;2022-08-01T07:57:51;100702.75;;;24.39;51.70
44825;BME280;30542;47.928;2.138;2022-08-01T08:02:51;100707.41;;;24.58;51.12
44825;BME280;30542;47.928;2.138;2022-08-01T08:07:51;100701.53;;;24.55;51.21
44825;BME280;30542;47.928;2.138;2022-08-01T08:12:52;100704.16;;;24.61;51.22
44825;BME280;30542;47.928;2.138;2022-08-01T08:17:52;100719.22;;;24.62;51.16
44825;BME280;30542;47.928;2.138;2022-08-01T08:22:53;100728.97;;;24.58;51.32
44825;BME280;30542;47.928;2.138;2022-08-01T08:27:54;100724.13;;;24.54;51.53
44825;BME280;30542;47.928;2.138;2022-08-01T08:32:54;100713.34;;;24.60;51.62
44825;BME280;30542;47.928;2.138;2022-08-01T08:37:54;100705.00;;;24.56;51.44
44825;BME280;30542;47.928;2.138;2022-08-01T08:42:56;100710.63;;;24.60;51.63
44825;BME280;30542;47.928;2.138;2022-08-01T08:47:58;100718.75;;;24.54;51.79
44825;BME280;30542;47.928;2.138;2022-08-01T08:53:00;100706.38;;;24.53;51.50
44825;BME280;30542;47.928;2.138;2022-08-01T08:58:01;100682.75;;;24.45;51.17
44825;BME280;30542;47.928;2.138;2022-08-01T09:03:05;100706.31;;;24.59;51.40
44825;BME280;30542;47.928;2.138;2022-08-01T09:08:07;100704.97;;;24.61;51.61
44825;BME280;30542;47.928;2.138;2022-08-01T09:13:11;100699.91;;;24.54;51.77
44825;BME280;30542;47.928;2.138;2022-08-01T09:18:37;100700.59;;;24.65;51.53
44825;BME280;30542;47.928;2.138;2022-08-01T09:24:00;100708.34;;;24.72;51.52
44825;BME280;30542;47.928;2.138;2022-08-01T09:29:07;100700.53;;;24.70;51.39
44825;BME280;30542;47.928;2.138;2022-08-01T09:34:08;100692.69;;;24.74;51.35
44825;BME280;30542;47.928;2.138;2022-08-01T09:39:14;100715.84;;;24.75;52.04
44825;BME280;30542;47.928;2.138;2022-08-01T09:44:16;100722.78;;;24.81;51.85
44825;BME280;30542;47.928;2.138;2022-08-01T09:49:28;100715.91;;;24.70;52.30
44825;BME280;30542;47.928;2.138;2022-08-01T09:54:30;100716.94;;;24.74;52.18
44825;BME280;30542;47.928;2.138;2022-08-01T09:59:39;100705.25;;;24.84;51.88
44825;BME280;30542;47.928;2.138;2022-08-01T10:04:48;100705.31;;;24.78;51.68
44825;BME280;30542;47.928;2.138;2022-08-01T10:09:49;100718.94;;;24.87;51.49
44825;BME280;30542;47.928;2.138;2022-08-01T10:14:50;100704.97;;;24.85;51.53
44825;BME280;30542;47.928;2.138;2022-08-01T10:19:52;100697.44;;;24.82;51.37
44825;BME280;30542;47.928;2.138;2022-08-01T10:24:55;100697.69;;;24.86;51.19
44825;BME280;30542;47.928;2.138;2022-08-01T10:29:59;100713.56;;;24.87;51.34
44825;BME280;30542;47.928;2.138;2022-08-01T10:35:06;100705.03;;;24.80;51.53
44825;BME280;30542;47.928;2.138;2022-08-01T10:40:08;100702.72;;;24.92;51.01
44825;BME280;30542;47.928;2.138;2022-08-01T10:45:12;100698.47;;;24.86;51.13
44825;BME280;30542;47.928;2.138;2022-08-01T10:50:20;100695.84;;;24.81;51.14
44825;BME280;30542;47.928;2.138;2022-08-01T10:55:24;100694.53;;;24.78;51.20
44825;BME280;30542;47.928;2.138;2022-08-01T11:00:25;100697.69;;;24.86;51.11
44825;BME280;30542;47.928;2.138;2022-08-01T11:05:26;100700.09;;;24.87;50.75
44825;BME280;30542;47.928;2.138;2022-08-01T11:10:41;100703.88;;;24.86;50.79
44825;BME280;30542;47.928;2.138;2022-08-01T11:15:45;100700.47;;;24.75;50.95
44825;BME280;30542;47.928;2.138;2022-08-01T11:20:56;100704.34;;;24.93;51.08
44825;BME280;30542;47.928;2.138;2022-08-01T11:41:24;100719.44;;;25.18;50.11
44825;BME280;30542;47.928;2.138;2022-08-01T11:52:01;100705.94;;;25.37;49.58
44825;BME280;30542;47.928;2.138;2022-08-01T11:57:06;100675.25;;;25.33;49.35
44825;BME280;30542;47.928;2.138;2022-08-01T12:02:18;100695.53;;;25.49;49.04
44825;BME280;30542;47.928;2.138;2022-08-01T12:07:19;100680.66;;;25.52;48.80
44825;BME280;30542;47.928;2.138;2022-08-01T12:12:20;100678.47;;;25.54;48.71
44825;BME280;30542;47.928;2.138;2022-08-01T12:18:41;100697.00;;;25.61;48.74
44825;BME280;30542;47.928;2.138;2022-08-01T12:23:42;100700.19;;;25.63;48.31
44825;BME280;30542;47.928;2.138;2022-08-01T12:28:45;100697.13;;;25.69;47.97
44825;BME280;30542;47.928;2.138;2022-08-01T12:33:45;100687.44;;;25.68;47.63
44825;BME280;30542;47.928;2.138;2022-08-01T12:38:52;100679.56;;;25.72;47.93
44825;BME280;30542;47.928;2.138;2022-08-01T12:43:53;100666.66;;;25.69;47.74
44825;BME280;30542;47.928;2.138;2022-08-01T12:48:54;100671.41;;;25.77;47.52
44825;BME280;30542;47.928;2.138;2022-08-01T12:53:58;100689.13;;;25.83;47.13
44825;BME280;30542;47.928;2.138;2022-08-01T12:58:59;100694.03;;;25.81;47.26
44825;BME280;30542;47.928;2.138;2022-08-01T13:04:01;100691.53;;;25.85;47.02
44825;BME280;30542;47.928;2.138;2022-08-01T13:09:08;100685.91;;;25.81;46.94
44825;BME280;30542;47.928;2.138;2022-08-01T13:14:10;100664.75;;;25.50;47.39
44825;BME280;30542;47.928;2.138;2022-08-01T13:19:11;100676.91;;;25.67;47.27
44825;BME280;30542;47.928;2.138;2022-08-01T13:24:12;100695.00;;;25.66;47.04
44825;BME280;30542;47.928;2.138;2022-08-01T13:29:17;100684.81;;;25.63;46.79
44825;BME280;30542;47.928;2.138;2022-08-01T13:34:29;100690.34;;;25.53;46.83
44825;BME280;30542;47.928;2.138;2022-08-01T13:39:32;100676.94;;;25.48;46.75
44825;BME280;30542;47.928;2.138;2022-08-01T13:44:43;100685.63;;;25.45;46.50
44825;BME280;30542;47.928;2.138;2022-08-01T13:49:46;100678.97;;;25.37;46.36
44825;BME280;30542;47.928;2.138;2022-08-01T13:54:47;100678.25;;;25.32;46.28
44825;BME280;30542;47.928;2.138;2022-08-01T13:59:47;100668.16;;;25.42;46.13
44825;BME280;30542;47.928;2.138;2022-08-01T14:04:48;100667.31;;;25.42;45.73
44825;BME280;30542;47.928;2.138;2022-08-01T14:09:48;100670.47;;;25.30;46.30
44825;BME280;30542;47.928;2.138;2022-08-01T14:14:49;100666.03;;;25.39;46.25
44825;BME280;30542;47.928;2.138;2022-08-01T14:19:49;100660.09;;;25.37;46.46
44825;BME280;30542;47.928;2.138;2022-08-01T14:24:50;100661.72;;;25.38;46.51
44825;BME280;30542;47.928;2.138;2022-08-01T14:29:50;100658.38;;;25.46;46.27
44825;BME280;30542;47.928;2.138;2022-08-01T14:34:51;100649.75;;;25.44;46.51
44825;BME280;30542;47.928;2.138;2022-08-01T14:39:51;100638.47;;;25.42;46.45
44825;BME280;30542;47.928;2.138;2022-08-01T14:44:51;100653.47;;;25.48;46.20
44825;BME280;30542;47.928;2.138;2022-08-01T14:49:52;100645.97;;;25.45;46.21
44825;BME280;30542;47.928;2.138;2022-08-01T14:54:52;100641.59;;;25.49;46.12
44825;BME280;30542;47.928;2.138;2022-08-01T14:59:53;100622.22;;;25.47;46.20
44825;BME280;30542;47.928;2.138;2022-08-01T15:04:53;100627.00;;;25.50;45.62
44825;BME280;30542;47.928;2.138;2022-08-01T15:09:54;100633.41;;;25.54;45.71
44825;BME280;30542;47.928;2.138;2022-08-01T15:14:54;100632.03;;;25.57;45.65
44825;BME280;30542;47.928;2.138;2022-08-01T15:19:56;100630.03;;;25.63;46.11
44825;BME280;30542;47.928;2.138;2022-08-01T15:24:59;100640.25;;;25.66;45.86
44825;BME280;30542;47.928;2.138;2022-08-01T15:29:59;100621.16;;;25.62;46.06
44825;BME280;30542;47.928;2.138;2022-08-01T15:35:00;100593.56;;;25.51;45.14
44825;BME280;30542;47.928;2.138;2022-08-01T15:40:00;100613.81;;;25.68;44.94
44825;BME280;30542;47.928;2.138;2022-08-01T15:45:00;100617.28;;;25.68;44.82
44825;BME280;30542;47.928;2.138;2022-08-01T15:50:01;100606.88;;;25.62;44.88
44825;BME280;30542;47.928;2.138;2022-08-01T15:55:02;100609.69;;;25.70;44.95
44825;BME280;30542;47.928;2.138;2022-08-01T16:00:04;100612.13;;;25.72;44.67
44825;BME280;30542;47.928;2.138;2022-08-01T16:05:05;100610.50;;;25.71;44.16
44825;BME280;30542;47.928;2.138;2022-08-01T16:10:06;100612.91;;;25.72;44.23
44825;BME280;30542;47.928;2.138;2022-08-01T16:15:07;100586.97;;;25.58;43.71
44825;BME280;30542;47.928;2.138;2022-08-01T16:20:08;100603.13;;;25.76;43.20
44825;BME280;30542;47.928;2.138;2022-08-01T16:25:09;100601.75;;;25.79;43.64
44825;BME280;30542;47.928;2.138;2022-08-01T16:30:10;100594.25;;;25.76;43.30
44825;BME280;30542;47.928;2.138;2022-08-01T16:35:11;100567.00;;;25.59;43.38
44825;BME280;30542;47.928;2.138;2022-08-01T16:40:11;100562.91;;;25.61;43.09
44825;BME280;30542;47.928;2.138;2022-08-01T16:45:12;100597.72;;;25.76;42.84
44825;BME280;30542;47.928;2.138;2022-08-01T16:50:14;100547.28;;;25.44;42.59
44825;BME280;30542;47.928;2.138;2022-08-01T16:55:15;100588.84;;;25.76;42.12
44825;BME280;30542;47.928;2.138;2022-08-01T17:00:16;100589.88;;;25.80;41.97
44825;BME280;30542;47.928;2.138;2022-08-01T17:05:19;100596.28;;;25.84;41.88
44825;BME280;30542;47.928;2.138;2022-08-01T17:10:19;100586.28;;;25.85;41.92
44825;BME280;30542;47.928;2.138;2022-08-01T17:15:19;100586.78;;;25.87;41.70
44825;BME280;30542;47.928;2.138;2022-08-01T17:20:21;100575.19;;;25.86;41.14
44825;BME280;30542;47.928;2.138;2022-08-01T17:25:22;100571.00;;;25.80;40.79
44825;BME280;30542;47.928;2.138;2022-08-01T17:30:23;100571.59;;;25.91;40.76
44825;BME280;30542;47.928;2.138;2022-08-01T17:35:24;100560.19;;;25.80;41.11
44825;BME280;30542;47.928;2.138;2022-08-01T17:40:24;100499.25;;;25.46;41.21
44825;BME280;30542;47.928;2.138;2022-08-01T17:45:24;100567.50;;;25.93;40.92
44825;BME280;30542;47.928;2.138;2022-08-01T17:50:25;100561.59;;;25.91;40.87
44825;BME280;30542;47.928;2.138;2022-08-01T17:55:25;100570.22;;;25.93;40.99
44825;BME280;30542;47.928;2.138;2022-08-01T18:00:26;100567.72;;;25.97;40.83
44825;BME280;30542;47.928;2.138;2022-08-01T18:05:27;100563.41;;;25.96;41.18
44825;BME280;30542;47.928;2.138;2022-08-01T18:10:27;100513.03;;;25.59;40.95
44825;BME280;30542;47.928;2.138;2022-08-01T18:15:28;100527.38;;;25.73;40.83
44825;BME280;30542;47.928;2.138;2022-08-01T18:20:29;100574.41;;;25.99;41.03
44825;BME280;30542;47.928;2.138;2022-08-01T18:25:29;100574.41;;;25.99;40.68
44825;BME280;30542;47.928;2.138;2022-08-01T18:30:30;100552.59;;;25.82;40.65
44825;BME280;30542;47.928;2.138;2022-08-01T18:35:30;100549.41;;;25.80;40.93
44825;BME280;30542;47.928;2.138;2022-08-01T18:40:32;100578.00;;;25.95;41.16
44825;BME280;30542;47.928;2.138;2022-08-01T18:45:33;100569.69;;;25.91;41.49
44825;BME280;30542;47.928;2.138;2022-08-01T18:50:34;100582.38;;;25.91;41.74
44825;BME280;30542;47.928;2.138;2022-08-01T18:55:34;100585.19;;;25.86;42.20
44825;BME280;30542;47.928;2.138;2022-08-01T19:00:34;100593.16;;;25.77;43.19
44825;BME280;30542;47.928;2.138;2022-08-01T19:05:35;100589.38;;;25.78;43.47
44825;BME280;30542;47.928;2.138;2022-08-01T19:10:37;100602.84;;;25.78;44.12
44825;BME280;30542;47.928;2.138;2022-08-01T19:15:37;100597.66;;;25.82;44.50
44825;BME280;30542;47.928;2.138;2022-08-01T19:20:38;100605.41;;;25.88;44.61
44825;BME280;30542;47.928;2.138;2022-08-01T19:25:41;100597.31;;;25.88;47.14
44825;BME280;30542;47.928;2.138;2022-08-01T19:30:42;100598.78;;;25.81;45.52
44825;BME280;30542;47.928;2.138;2022-08-01T19:35:42;100594.91;;;25.68;45.62
44825;BME280;30542;47.928;2.138;2022-08-01T19:40:43;100602.22;;;25.67;45.85
44825;BME280;30542;47.928;2.138;2022-08-01T19:45:44;100600.91;;;25.65;46.27
44825;BME280;30542;47.928;2.138;2022-08-01T19:50:45;100597.50;;;25.59;46.13
44825;BME280;30542;47.928;2.138;2022-08-01T19:55:47;100609.66;;;25.57;46.67
44825;BME280;30542;47.928;2.138;2022-08-01T20:00:48;100607.53;;;25.53;46.19
44825;BME280;30542;47.928;2.138;2022-08-01T20:05:50;100614.84;;;25.53;46.31
44825;BME280;30542;47.928;2.138;2022-08-01T20:10:50;100620.00;;;25.49;46.43
44825;BME280;30542;47.928;2.138;2022-08-01T20:15:52;100620.63;;;25.46;46.47
44825;BME280;30542;47.928;2.138;2022-08-01T20:20:53;100616.59;;;25.44;46.70
44825;BME280;30542;47.928;2.138;2022-08-01T20:25:55;100630.16;;;25.39;47.04
44825;BME280;30542;47.928;2.138;2022-08-01T20:30:59;100639.13;;;25.34;46.74
44825;BME280;30542;47.928;2.138;2022-08-01T20:36:00;100649.09;;;25.34;47.08
44825;BME280;30542;47.928;2.138;2022-08-01T20:41:02;100645.91;;;25.32;47.23
44825;BME280;30542;47.928;2.138;2022-08-01T20:46:04;100650.78;;;25.29;47.39
44825;BME280;30542;47.928;2.138;2022-08-01T20:51:05;100655.16;;;25.25;47.56
44825;BME280;30542;47.928;2.138;2022-08-01T21:01:36;100665.72;;;25.22;47.42
44825;BME280;30542;47.928;2.138;2022-08-01T21:06:50;100666.31;;;25.19;47.75
44825;BME280;30542;47.928;2.138;2022-08-01T21:12:03;100658.78;;;25.16;48.06
44825;BME280;30542;47.928;2.138;2022-08-01T21:17:08;100669.00;;;25.19;47.62
44825;BME280;30542;47.928;2.138;2022-08-01T21:22:19;100670.53;;;25.25;47.10
44825;BME280;30542;47.928;2.138;2022-08-01T21:27:20;100672.19;;;25.21;46.95
44825;BME280;30542;47.928;2.138;2022-08-01T21:32:23;100671.53;;;25.29;46.87
44825;BME280;30542;47.928;2.138;2022-08-01T21:37:25;100663.75;;;25.27;46.82
44825;BME280;30542;47.928;2.138;2022-08-01T21:42:27;100677.25;;;25.27;47.31
44825;BME280;30542;47.928;2.138;2022-08-01T21:47:28;100662.22;;;25.21;47.58
44825;BME280;30542;47.928;2.138;2022-08-01T21:58:26;100683.72;;;25.26;47.34
44825;BME280;30542;47.928;2.138;2022-08-01T22:03:47;100675.41;;;25.23;47.25
44825;BME280;30542;47.928;2.138;2022-08-01T22:08:50;100666.22;;;25.24;47.21
44825;BME280;30542;47.928;2.138;2022-08-01T22:13:53;100670.03;;;25.23;47.07
44825;BME280;30542;47.928;2.138;2022-08-01T22:18:56;100663.09;;;25.17;47.03
44825;BME280;30542;47.928;2.138;2022-08-01T22:23:57;100666.00;;;25.20;47.09
44825;BME280;30542;47.928;2.138;2022-08-01T22:28:58;100669.81;;;25.19;46.98
44825;BME280;30542;47.928;2.138;2022-08-01T22:33:59;100667.41;;;25.18;46.90
44825;BME280;30542;47.928;2.138;2022-08-01T22:38:59;100666.81;;;25.21;46.90
44825;BME280;30542;47.928;2.138;2022-08-01T22:44:08;100675.19;;;25.19;46.63
44825;BME280;30542;47.928;2.138;2022-08-01T22:49:39;100671.97;;;25.17;46.41
44825;BME280;30542;47.928;2.138;2022-08-01T22:54:45;100671.16;;;25.17;46.26
44825;BME280;30542;47.928;2.138;2022-08-01T22:59:56;100667.69;;;25.16;46.64
44825;BME280;30542;47.928;2.138;2022-08-01T23:05:03;100667.19;;;25.14;46.30
44825;BME280;30542;47.928;2.138;2022-08-01T23:10:05;100667.44;;;25.13;46.42
44825;BME280;30542;47.928;2.138;2022-08-01T23:15:07;100667.97;;;25.15;46.36
44825;BME280;30542;47.928;2.138;2022-08-01T23:20:08;100663.97;;;25.12;46.14
44825;BME280;30542;47.928;2.138;2022-08-01T23:25:11;100655.38;;;25.10;46.11
44825;BME280;30542;47.928;2.138;2022-08-01T23:30:12;100656.47;;;25.09;46.18
44825;BME280;30542;47.928;2.138;2022-08-01T23:35:12;100654.38;;;25.01;46.43
44825;BME280;30542;47.928;2.138;2022-08-01T23:40:13;100650.53;;;25.07;46.27
44825;BME280;30542;47.928;2.138;2022-08-01T23:45:13;100647.81;;;25.07;46.04
44825;BME280;30542;47.928;2.138;2022-08-01T23:50:14;100654.88;;;25.03;46.20
44825;BME280;30542;47.928;2.138;2022-08-01T23:55:14;100650.59;;;25.02;45.94
